Oxford, NE

12:33 AM CST del 28 Gennaio 2015 (GMT -0600)
Kelly | Change Station
CLOSE
Current Station
Aeroporto
Location: Lexington,
Altitudine: 2411 ft
Stazioni meteo nelle vicinanze

Alt. 2411 ft 40.79 °N, 99.78 °W | Updated 18 minutes ago

Sereno
Sereno
32 °F
Sembra 32 °F
N
0
Vento Variabile Vento da Nord

Oggi
Massima -- | Minima -- °F
--% Possibilità di precip.
Ieri
Massima -- | Minima -- °F
Precip. -- in
7:51 AM 5:52 PM
Primo quarto, 61% visible
Pressione 29.90 in
Visibilità 10.0 miglia
Nuvole Sereno
Punto di rugiada 27 °F
Umidità 82%
Piovosità 0.00 in
Spessore del manto nevoso Non disponibile.
Raggi UV 0 fuori da 12
Polline .10 fuori da 12
Qualità dell'aria Non disponibile.
Flu Activity Non disponibile.
METAR KLXN 280615Z AUTO 00000KT 10SM CLR 00/M03 A2990 RMK AO2 T10011029

More Conditions Fewer Conditions

Pressione 29.90 in
Visibilità 10.0 miglia
Nuvole Sereno
Punto di rugiada 27 °F
Umidità 82%
Piovosità 0.00 in
Spessore del manto nevoso Non disponibile.
Raggi UV 0 fuori da 12
Polline .10 fuori da 12
Qualità dell'aria Non disponibile.
Flu Activity Non disponibile.
METAR KLXN 280615Z AUTO 00000KT 10SM CLR 00/M03 A2990 RMK AO2 T10011029

More Conditions Fewer Conditions

10-Day Weather Forecast

Almanac

Astronomia

Jan. 28, 2015 Alba Tramonto
Ora attuale
Crepuscolo civile
Crepuscolo nautico
Crepuscolo astronomico
Luna
Estensione della luce visibile
Lunghezza del giorno
Tomorrow will be .
, % of the Moon is Illuminated

Gli estremi di oggi

State Highs State Lows

Community

WunderPhotos

Upload Photos

1,791,112 foto caricate!

WunderBlogs® & News

Nearby

Qualità dell'aria

  Qualità dell'aria Indice AQ Inquinante
Not available.

Profondità neve

Stazione Profondità Altitudine

Attività sismica

Città  Distanza Mag. Data & Ora
Minimo Magnitudo Mostrato è 2.5.

Temperature delle acque costiere

Località Temperatura

Stazioni meteo nelle vicinanze